Time;durP1;ratioP1;P1;durP2;ratioP2;P2;SDS_P1;SDS_P2;PMS_P1;PMS_P2;Temp;Humidity;BMP_temperature;BMP_pressure;BME280_temperature;BME280_humidity;BME280_pressure;Samples;Min_cycle;Max_cycle;Signal;HPM_P1;HPM_P2
2022/07/19 00:03:50;;;;;;;9.80;4.40;;;;;;;18.75;51.84;99650.28;234324;1199;138914;-59
2022/07/19 00:08:53;;;;;;;10.00;4.00;;;;;;;18.71;51.86;99647.55;234236;1199;138662;-57
2022/07/19 00:13:56;;;;;;;11.10;5.00;;;;;;;18.65;52.02;99641.08;234263;1199;138929;-57
2022/07/19 00:18:59;;;;;;;12.80;4.80;;;;;;;18.57;52.08;99630.55;234220;1199;138936;-56
2022/07/19 00:24:04;;;;;;;12.10;4.50;;;;;;;18.50;52.02;99629.79;234251;1199;139893;-56
2022/07/19 00:29:07;;;;;;;7.50;4.70;;;;;;;18.44;52.19;99624.17;234312;1199;140354;-57
2022/07/19 00:34:10;;;;;;;8.30;4.60;;;;;;;18.38;52.38;99630.78;234236;1199;139422;-55
2022/07/19 00:39:13;;;;;;;11.50;4.40;;;;;;;18.34;52.56;99629.31;233918;1199;139043;-56
2022/07/19 00:44:15;;;;;;;8.90;4.30;;;;;;;18.30;52.76;99631.66;234187;1199;139768;-55
2022/07/19 00:49:18;;;;;;;9.20;4.50;;;;;;;18.26;53.02;99634.85;233754;1199;141290;-56
2022/07/19 00:54:23;;;;;;;10.20;4.20;;;;;;;18.21;52.88;99637.96;233911;1199;138943;-56
2022/07/19 00:59:26;;;;;;;8.60;4.40;;;;;;;18.18;53.37;99635.67;234352;1199;139125;-57
2022/07/19 01:04:29;;;;;;;9.60;4.20;;;;;;;18.19;53.45;99638.45;234185;1199;140155;-57
2022/07/19 01:09:36;;;;;;;8.70;4.60;;;;;;;18.23;53.58;99634.80;234250;1199;139170;-57
2022/07/19 01:14:39;;;;;;;12.30;4.50;;;;;;;18.25;53.77;99636.20;234241;1199;139614;-57
2022/07/19 01:19:43;;;;;;;10.20;4.40;;;;;;;18.27;53.53;99640.55;234188;1199;139174;-58
2022/07/19 01:24:46;;;;;;;9.10;4.30;;;;;;;18.25;53.56;99641.97;233969;1199;139154;-58
2022/07/19 01:29:49;;;;;;;8.60;4.30;;;;;;;18.19;53.50;99638.46;234149;1199;139342;-59
2022/07/19 01:34:51;;;;;;;7.70;4.30;;;;;;;18.14;53.65;99635.13;234371;1199;139595;-60
2022/07/19 01:39:56;;;;;;;8.40;3.80;;;;;;;18.09;53.88;99635.77;234268;1199;139034;-59
2022/07/19 01:44:59;;;;;;;7.90;4.20;;;;;;;18.05;53.98;99634.86;234351;1198;138998;-58
2022/07/19 01:50:05;;;;;;;10.90;4.10;;;;;;;18.02;53.96;99631.70;234335;1199;139534;-58
2022/07/19 01:55:08;;;;;;;9.60;4.70;;;;;;;18.00;54.15;99629.52;234237;1199;139598;-58
2022/07/19 02:00:12;;;;;;;9.10;4.30;;;;;;;17.97;54.09;99627.09;234258;1199;139703;-59
2022/07/19 02:05:17;;;;;;;8.40;4.20;;;;;;;17.93;54.27;99628.97;234328;1199;138945;-55
2022/07/19 02:10:21;;;;;;;8.80;3.90;;;;;;;17.92;54.54;99630.51;234382;1199;139426;-60
2022/07/19 02:15:24;;;;;;;9.00;3.90;;;;;;;17.92;54.51;99628.36;234271;1199;139224;-59
2022/07/19 02:20:27;;;;;;;14.40;4.20;;;;;;;17.91;54.60;99627.56;234281;1198;139595;-60
2022/07/19 02:25:30;;;;;;;7.80;3.50;;;;;;;17.90;54.62;99628.52;234285;1199;138838;-57
2022/07/19 02:30:33;;;;;;;8.10;3.70;;;;;;;17.90;54.64;99629.81;234280;1199;138910;-58
2022/07/19 02:35:36;;;;;;;13.60;4.40;;;;;;;17.94;54.57;99633.92;233869;1199;139318;-56
2022/07/19 02:40:39;;;;;;;10.90;4.30;;;;;;;18.01;54.77;99636.80;233398;1199;139943;-59
2022/07/19 02:45:42;;;;;;;12.90;4.40;;;;;;;18.05;54.83;99634.28;234273;1199;138848;-59
2022/07/19 02:50:45;;;;;;;13.20;4.00;;;;;;;18.08;54.90;99637.43;234316;1199;139483;-57
2022/07/19 02:55:48;;;;;;;8.40;4.30;;;;;;;18.09;54.84;99639.11;234200;1199;139171;-58
2022/07/19 03:00:51;;;;;;;8.10;4.00;;;;;;;18.12;54.82;99637.48;234237;1199;140296;-59
2022/07/19 03:05:55;;;;;;;9.20;3.90;;;;;;;18.13;54.96;99635.42;234196;1199;139354;-58
2022/07/19 03:10:58;;;;;;;7.60;3.90;;;;;;;18.13;54.87;99636.88;234283;1200;138730;-58
2022/07/19 03:16:06;;;;;;;7.40;4.20;;;;;;;18.12;55.06;99638.39;234216;1198;139964;-57
2022/07/19 03:21:09;;;;;;;8.70;4.60;;;;;;;18.12;55.10;99635.17;234286;1199;138993;-56
2022/07/19 03:26:12;;;;;;;10.10;4.60;;;;;;;18.12;55.08;99640.13;234253;1199;138685;-58
2022/07/19 03:31:15;;;;;;;10.20;4.20;;;;;;;18.13;55.25;99644.17;234317;1198;139189;-59
2022/07/19 03:36:18;;;;;;;10.80;4.10;;;;;;;18.15;55.09;99652.80;233893;1199;139481;-58
2022/07/19 03:41:21;;;;;;;9.30;4.50;;;;;;;18.18;55.39;99652.38;234239;1199;139456;-59
2022/07/19 03:46:28;;;;;;;10.80;3.90;;;;;;;18.25;55.62;99656.50;234219;1199;139571;-56
2022/07/19 03:51:31;;;;;;;8.20;3.50;;;;;;;18.42;55.52;99655.23;234283;1199;139758;-58
2022/07/19 03:56:34;;;;;;;9.10;3.60;;;;;;;18.63;55.01;99649.33;234342;1199;139395;-57
2022/07/19 04:01:37;;;;;;;9.50;3.50;;;;;;;18.81;54.72;99649.59;234288;1199;140076;-58
2022/07/19 04:06:41;;;;;;;14.40;4.20;;;;;;;18.94;54.71;99651.94;234205;1199;139289;-57
2022/07/19 04:11:44;;;;;;;11.70;4.00;;;;;;;19.00;54.57;99657.45;234283;1199;139059;-59
2022/07/19 04:16:47;;;;;;;9.80;4.40;;;;;;;19.06;54.71;99658.61;234294;1199;139081;-57
2022/07/19 04:21:50;;;;;;;9.30;4.30;;;;;;;19.13;54.30;99661.86;233797;1199;138912;-58
2022/07/19 04:26:53;;;;;;;10.40;4.20;;;;;;;19.21;54.28;99668.77;234225;1199;139228;-59
2022/07/19 04:31:56;;;;;;;9.90;4.30;;;;;;;19.28;54.15;99669.23;234247;1199;139116;-59
2022/07/19 04:36:58;;;;;;;9.00;4.10;;;;;;;19.34;53.99;99673.01;234213;1199;138992;-58
2022/07/19 04:42:02;;;;;;;7.80;4.30;;;;;;;19.43;53.72;99672.92;234267;1198;139634;-58
2022/07/19 04:47:05;;;;;;;11.70;5.00;;;;;;;19.53;53.50;99679.62;234303;1199;139239;-59
2022/07/19 04:52:08;;;;;;;12.70;4.60;;;;;;;19.62;53.34;99678.64;234279;1199;140742;-56
2022/07/19 04:57:11;;;;;;;9.80;4.20;;;;;;;19.72;53.27;99672.77;234187;1199;139495;-57
2022/07/19 05:02:14;;;;;;;236.00;210.10;;;;;;;19.77;53.07;99679.13;234271;1199;141937;-56
2022/07/19 05:07:17;;;;;;;30.40;23.40;;;;;;;19.84;53.06;99674.15;234217;1199;139850;-58
2022/07/19 05:12:20;;;;;;;14.50;5.20;;;;;;;19.94;52.94;99666.80;234198;1199;141072;-58
2022/07/19 05:17:23;;;;;;;13.40;5.30;;;;;;;20.03;52.71;99667.73;234190;1199;139840;-59
2022/07/19 05:22:26;;;;;;;11.80;4.50;;;;;;;20.15;52.30;99667.94;234317;1199;138762;-59
2022/07/19 05:27:29;;;;;;;142.50;104.30;;;;;;;20.23;52.17;99662.48;234198;1199;138804;-57
2022/07/19 05:32:32;;;;;;;49.30;36.30;;;;;;;20.29;52.25;99668.05;234213;1199;139896;-59
2022/07/19 05:37:34;;;;;;;14.40;6.40;;;;;;;20.36;52.30;99661.84;234219;1199;139435;-60
2022/07/19 05:42:37;;;;;;;62.20;46.70;;;;;;;20.52;52.30;99659.96;234259;1199;139047;-60
2022/07/19 05:47:40;;;;;;;55.90;49.50;;;;;;;20.69;52.16;99658.28;233073;1199;140078;-58
2022/07/19 05:52:43;;;;;;;16.90;10.40;;;;;;;20.81;51.83;99658.35;234248;1199;139644;-59
2022/07/19 05:57:46;;;;;;;13.70;6.00;;;;;;;20.91;51.57;99653.40;234206;1199;139151;-56
2022/07/19 06:02:51;;;;;;;12.50;5.50;;;;;;;21.04;51.59;99646.91;234252;1198;139643;-57
2022/07/19 06:07:54;;;;;;;142.50;112.70;;;;;;;21.20;51.30;99647.91;234232;1199;139561;-59
2022/07/19 06:12:57;;;;;;;15.50;7.70;;;;;;;21.30;50.73;99647.03;234282;1199;141541;-57
2022/07/19 06:18:00;;;;;;;14.70;8.80;;;;;;;21.38;50.25;99645.51;234322;1199;139850;-57
2022/07/19 06:23:09;;;;;;;10.20;4.80;;;;;;;21.49;50.05;99642.30;234394;1199;140201;-57
2022/07/19 06:28:11;;;;;;;108.90;90.70;;;;;;;21.64;50.03;99637.95;234200;1199;139060;-60
2022/07/19 06:33:14;;;;;;;14.40;6.10;;;;;;;21.77;49.82;99635.96;234348;1199;140252;-60
2022/07/19 06:38:17;;;;;;;10.60;4.00;;;;;;;21.90;49.80;99636.23;234250;1199;139400;-59
2022/07/19 06:43:20;;;;;;;7.50;4.10;;;;;;;22.04;49.40;99635.39;234201;1199;139356;-60
2022/07/19 06:48:23;;;;;;;11.90;3.90;;;;;;;22.17;49.24;99638.58;234254;1199;138852;-59
2022/07/19 06:53:26;;;;;;;11.00;4.40;;;;;;;22.27;49.16;99639.39;234256;1199;140073;-59
2022/07/19 06:58:29;;;;;;;49.30;40.90;;;;;;;22.38;49.04;99638.41;234371;1199;138831;-56
2022/07/19 07:03:36;;;;;;;10.90;5.00;;;;;;;22.48;48.72;99637.10;234053;1199;139299;-59
2022/07/19 07:08:39;;;;;;;8.70;4.40;;;;;;;22.56;48.32;99639.16;234276;1199;140513;-58
2022/07/19 07:13:42;;;;;;;8.00;3.60;;;;;;;22.65;48.20;99635.67;234281;1199;138981;-58
2022/07/19 07:18:45;;;;;;;5.70;3.40;;;;;;;22.78;47.95;99630.58;234300;1199;138705;-56
2022/07/19 07:23:48;;;;;;;92.70;70.50;;;;;;;22.90;47.52;99624.78;234047;1199;138850;-58
2022/07/19 07:28:51;;;;;;;10.50;4.10;;;;;;;23.09;47.27;99621.06;234344;1199;139621;-59
2022/07/19 07:33:54;;;;;;;6.90;3.60;;;;;;;23.25;46.92;99620.38;234219;1199;138657;-58
2022/07/19 07:38:56;;;;;;;346.90;254.90;;;;;;;23.44;46.92;99628.77;234089;1198;138874;-58
2022/07/19 07:43:59;;;;;;;20.00;14.90;;;;;;;23.60;46.64;99638.26;234222;1199;139777;-56
2022/07/19 07:49:03;;;;;;;9.90;4.30;;;;;;;23.72;46.28;99636.86;234152;1199;139156;-58
2022/07/19 07:54:09;;;;;;;17.80;6.90;;;;;;;23.80;46.03;99634.48;234191;1199;139694;-58
2022/07/19 07:59:13;;;;;;;9.10;4.20;;;;;;;23.94;46.20;99634.77;234284;1199;139187;-58
2022/07/19 08:04:16;;;;;;;7.70;3.10;;;;;;;24.07;45.90;99642.77;234256;1199;138865;-56
2022/07/19 08:09:19;;;;;;;37.40;28.80;;;;;;;24.17;45.51;99637.21;234169;1199;139185;-57
2022/07/19 08:14:22;;;;;;;14.70;4.90;;;;;;;24.27;45.13;99632.42;234091;1198;139473;-58
2022/07/19 08:19:25;;;;;;;9.00;4.40;;;;;;;24.38;44.93;99625.27;234191;1199;141464;-58
2022/07/19 08:24:28;;;;;;;12.20;4.10;;;;;;;24.48;44.83;99625.48;234131;1199;139091;-56
2022/07/19 08:29:31;;;;;;;49.90;37.90;;;;;;;24.59;44.60;99623.85;234093;1199;139261;-58
2022/07/19 08:34:34;;;;;;;11.80;4.20;;;;;;;24.70;44.35;99620.11;234288;1199;140087;-57
2022/07/19 08:39:37;;;;;;;8.00;3.00;;;;;;;24.85;44.28;99618.96;234183;1199;139557;-58
2022/07/19 08:44:42;;;;;;;8.00;3.20;;;;;;;25.00;43.89;99613.28;234104;1199;139515;-57
2022/07/19 08:49:45;;;;;;;41.00;28.30;;;;;;;25.14;43.46;99616.20;234119;1198;139290;-59
2022/07/19 08:54:48;;;;;;;11.00;4.00;;;;;;;25.28;43.56;99619.36;234160;1199;139861;-59
2022/07/19 08:59:51;;;;;;;10.50;3.20;;;;;;;25.38;43.06;99619.16;234122;1199;139552;-58
2022/07/19 09:05:07;;;;;;;9.50;2.90;;;;;;;25.49;42.84;99617.00;234345;1199;139123;-58
2022/07/19 09:10:15;;;;;;;14.20;3.10;;;;;;;25.63;42.79;99608.20;234055;1200;139867;-57
2022/07/19 09:15:18;;;;;;;9.20;2.80;;;;;;;25.78;42.37;99602.14;234248;1199;139452;-57
2022/07/19 09:20:27;;;;;;;6.80;2.50;;;;;;;25.96;42.04;99603.77;234140;1199;139375;-58
2022/07/19 09:25:41;;;;;;;4.80;2.10;;;;;;;26.12;41.89;99597.05;233799;1199;140425;-57
2022/07/19 09:30:47;;;;;;;32.00;25.00;;;;;;;26.25;41.70;99591.72;234015;1199;140342;-56
2022/07/19 09:35:51;;;;;;;9.40;3.40;;;;;;;26.29;40.59;99595.48;234110;1199;139384;-57
2022/07/19 09:41:12;;;;;;;8.20;2.40;;;;;;;26.40;40.38;99595.21;234264;1199;138702;-56
2022/07/19 09:46:31;;;;;;;6.90;2.30;;;;;;;26.49;40.13;99587.25;234118;1199;139210;-58
2022/07/19 09:51:37;;;;;;;146.40;117.60;;;;;;;26.64;39.94;99587.80;234149;1199;139410;-56
2022/07/19 09:56:43;;;;;;;14.60;9.10;;;;;;;26.82;39.31;99584.20;234126;1199;139584;-57
2022/07/19 10:01:48;;;;;;;6.30;2.80;;;;;;;26.93;38.69;99581.27;234175;1199;139282;-57
2022/07/19 10:06:52;;;;;;;4.90;2.10;;;;;;;27.01;38.38;99582.17;234167;1199;138707;-56
2022/07/19 10:11:56;;;;;;;6.10;2.40;;;;;;;27.10;37.82;99579.39;234083;1199;140363;-58
2022/07/19 10:17:14;;;;;;;7.60;3.50;;;;;;;27.21;37.61;99578.02;234254;1199;139609;-57
2022/07/19 10:22:20;;;;;;;8.00;2.60;;;;;;;27.28;37.52;99580.06;234110;1199;138772;-56
2022/07/19 10:27:23;;;;;;;6.10;2.50;;;;;;;27.43;37.58;99579.29;234153;1199;139293;-56
2022/07/19 10:32:31;;;;;;;5.20;3.10;;;;;;;27.52;37.40;99579.50;234223;1199;138764;-57
2022/07/19 10:37:41;;;;;;;7.70;3.00;;;;;;;27.56;37.05;99575.38;234014;1199;139897;-56
2022/07/19 10:43:05;;;;;;;7.70;2.70;;;;;;;27.57;37.08;99566.22;234118;1199;139069;-57
2022/07/19 10:48:13;;;;;;;6.10;2.50;;;;;;;27.77;36.81;99569.84;234166;1199;139770;-57
2022/07/19 10:53:41;;;;;;;7.00;2.70;;;;;;;27.84;36.22;99563.69;234233;1199;139204;-58
2022/07/19 10:58:55;;;;;;;7.10;2.80;;;;;;;27.79;35.95;99560.91;234272;1199;139091;-58
2022/07/19 11:04:23;;;;;;;3.80;2.60;;;;;;;27.70;35.92;99561.27;234185;1199;139250;-57
2022/07/19 11:09:48;;;;;;;6.20;2.30;;;;;;;27.59;35.99;99561.16;234176;1199;138995;-56
2022/07/19 11:14:52;;;;;;;8.60;2.70;;;;;;;27.50;35.88;99555.98;233619;1199;139560;-56
2022/07/19 11:20:17;;;;;;;9.90;2.60;;;;;;;27.47;35.83;99549.95;234201;1199;139474;-56
2022/07/19 11:25:31;;;;;;;6.30;2.30;;;;;;;27.52;35.91;99547.31;234106;1199;139839;-56
2022/07/19 11:30:35;;;;;;;6.60;2.90;;;;;;;27.75;36.06;99545.18;234046;1199;138830;-57
2022/07/19 11:35:38;;;;;;;3.50;2.00;;;;;;;28.07;36.04;99532.31;234148;1199;139074;-57
2022/07/19 11:40:41;;;;;;;4.30;2.40;;;;;;;28.45;36.08;99529.98;234278;1198;139483;-57
2022/07/19 11:45:49;;;;;;;5.50;2.60;;;;;;;28.80;35.64;99526.94;234124;1199;139302;-55
2022/07/19 11:51:02;;;;;;;4.50;2.10;;;;;;;29.10;35.10;99524.90;234239;1199;139340;-57
2022/07/19 11:56:16;;;;;;;6.50;2.20;;;;;;;29.36;34.50;99522.88;234145;1199;139817;-57
2022/07/19 12:01:27;;;;;;;8.20;5.20;;;;;;;29.62;34.79;99519.77;234139;1199;139071;-57
2022/07/19 12:06:37;;;;;;;10.40;3.00;;;;;;;29.89;34.73;99508.73;234149;1199;140443;-57
2022/07/19 12:11:46;;;;;;;8.30;2.90;;;;;;;30.15;34.20;99510.66;234216;1198;139278;-54
2022/07/19 12:17:09;;;;;;;7.30;2.70;;;;;;;30.38;34.08;99505.16;234228;1199;139209;-56
2022/07/19 12:22:26;;;;;;;4.10;2.20;;;;;;;30.61;33.74;99503.65;234122;1199;139016;-54
2022/07/19 12:27:30;;;;;;;7.50;2.40;;;;;;;30.84;33.18;99496.91;234080;1199;139034;-56
2022/07/19 12:32:36;;;;;;;6.00;2.30;;;;;;;31.01;32.87;99495.73;234077;1199;138804;-53
2022/07/19 12:37:42;;;;;;;5.70;2.10;;;;;;;31.10;32.49;99484.14;234176;1199;139670;-56
2022/07/19 12:43:04;;;;;;;6.10;2.30;;;;;;;31.26;32.09;99479.63;234226;1199;139315;-55
2022/07/19 12:48:11;;;;;;;4.90;2.10;;;;;;;31.34;31.78;99480.05;234067;1199;139294;-55
2022/07/19 12:53:17;;;;;;;3.60;2.20;;;;;;;31.37;31.54;99477.45;233798;1197;140137;-56
2022/07/19 13:03:41;;;;;;;6.20;2.20;;;;;;;31.68;31.02;99474.94;234160;1199;139240;-54
2022/07/19 13:08:44;;;;;;;6.00;2.50;;;;;;;31.86;30.92;99463.23;234045;1199;138990;-53
2022/07/19 13:13:48;;;;;;;8.80;2.40;;;;;;;31.99;30.67;99459.59;234026;1199;139150;-53
2022/07/19 13:18:51;;;;;;;12.80;6.00;;;;;;;32.19;30.72;99453.02;234065;1199;139403;-56
2022/07/19 13:23:54;;;;;;;3.90;2.40;;;;;;;32.43;30.27;99448.90;234127;1199;140511;-56
2022/07/19 13:29:04;;;;;;;4.10;2.40;;;;;;;32.65;30.12;99451.20;234166;1199;138948;-54
2022/07/19 13:34:06;;;;;;;7.10;2.30;;;;;;;32.84;29.79;99444.27;234098;1199;139273;-54
2022/07/19 13:39:11;;;;;;;4.40;2.10;;;;;;;33.06;29.80;99440.47;234125;1199;139325;-55
2022/07/19 13:44:14;;;;;;;6.00;2.20;;;;;;;33.20;29.22;99433.59;234191;1199;139638;-55
2022/07/19 13:49:17;;;;;;;6.00;2.40;;;;;;;33.27;29.06;99431.03;234102;1199;139769;-55
2022/07/19 13:54:20;;;;;;;5.30;2.00;;;;;;;33.35;28.97;99422.08;234119;1199;139486;-56
2022/07/19 13:59:23;;;;;;;8.70;2.40;;;;;;;33.40;28.44;99421.63;234118;1199;139391;-56
2022/07/19 14:04:26;;;;;;;6.30;2.10;;;;;;;33.43;28.60;99410.50;233941;1199;139868;-56
2022/07/19 14:09:29;;;;;;;3.80;2.20;;;;;;;33.53;28.49;99409.74;234004;1199;139090;-54
2022/07/19 14:14:32;;;;;;;7.40;2.80;;;;;;;33.52;28.41;99405.34;234106;1199;139212;-56
2022/07/19 14:19:37;;;;;;;3.50;1.90;;;;;;;33.37;28.21;99404.86;234078;1199;140345;-57
2022/07/19 14:24:41;;;;;;;7.60;2.00;;;;;;;33.27;27.93;99401.06;234174;1199;138909;-55
2022/07/19 14:29:44;;;;;;;3.60;2.20;;;;;;;33.20;27.90;99389.90;234189;1199;139037;-57
2022/07/19 14:34:47;;;;;;;6.30;2.30;;;;;;;33.09;28.33;99391.73;234317;1199;138981;-56
2022/07/19 14:39:50;;;;;;;7.60;2.50;;;;;;;32.98;28.10;99389.65;234281;1199;139319;-55
2022/07/19 14:44:52;;;;;;;8.80;2.30;;;;;;;32.84;28.06;99384.38;234100;1199;139264;-56
2022/07/19 14:49:55;;;;;;;5.40;2.60;;;;;;;32.63;28.18;99381.16;234049;1199;138883;-56
2022/07/19 14:54:58;;;;;;;4.70;2.40;;;;;;;32.36;28.25;99380.67;234175;1199;139451;-56
2022/07/19 15:00:05;;;;;;;7.70;2.70;;;;;;;32.09;28.15;99378.07;234215;1199;139395;-56
2022/07/19 15:05:08;;;;;;;6.60;4.20;;;;;;;31.87;28.41;99376.23;234359;1199;139031;-56
2022/07/19 15:10:12;;;;;;;3.60;2.30;;;;;;;31.64;28.51;99378.31;234254;1199;139269;-55
2022/07/19 15:15:14;;;;;;;5.40;2.40;;;;;;;31.45;28.59;99374.20;234227;1198;236814;-55
2022/07/19 15:20:17;;;;;;;5.60;2.40;;;;;;;31.27;28.67;99375.11;234151;1199;139062;-56
2022/07/19 15:25:23;;;;;;;5.50;2.30;;;;;;;31.11;28.80;99368.82;234103;1199;139440;-56
2022/07/19 15:30:26;;;;;;;7.30;2.40;;;;;;;30.98;28.76;99371.17;234075;1199;139428;-56
2022/07/19 15:35:29;;;;;;;6.10;2.60;;;;;;;30.83;28.96;99367.91;234135;1199;139358;-55
2022/07/19 15:40:32;;;;;;;7.90;2.40;;;;;;;30.74;29.37;99364.23;234337;1199;139183;-55
2022/07/19 15:45:35;;;;;;;3.90;2.10;;;;;;;30.64;29.39;99362.92;234236;1198;139310;-55
2022/07/19 15:50:38;;;;;;;5.00;2.20;;;;;;;30.52;29.19;99362.54;234163;1199;139088;-56
2022/07/19 15:55:41;;;;;;;8.40;2.60;;;;;;;30.42;29.37;99360.00;234217;1199;138994;-56
2022/07/19 16:00:44;;;;;;;5.60;2.80;;;;;;;30.34;29.39;99357.57;234199;1199;139334;-55
2022/07/19 16:05:47;;;;;;;6.60;2.80;;;;;;;30.29;29.72;99355.84;234093;1199;139601;-54
2022/07/19 16:10:50;;;;;;;6.20;2.50;;;;;;;30.25;29.83;99354.20;234277;1199;140308;-54
2022/07/19 16:15:53;;;;;;;46.10;37.40;;;;;;;30.33;29.81;99353.27;234127;1198;139189;-56
2022/07/19 16:20:56;;;;;;;9.20;3.40;;;;;;;30.37;29.57;99347.64;234095;1199;139623;-56
2022/07/19 16:25:59;;;;;;;6.80;2.80;;;;;;;30.29;29.63;99350.95;234148;1199;139373;-54
2022/07/19 16:31:03;;;;;;;6.60;3.20;;;;;;;30.21;29.77;99347.00;234122;1199;139038;-54
2022/07/19 16:36:07;;;;;;;4.40;2.40;;;;;;;30.06;29.84;99348.09;234158;1199;139284;-54
2022/07/19 16:41:10;;;;;;;7.70;2.30;;;;;;;29.99;29.92;99348.02;234234;1199;140494;-54
2022/07/19 16:46:13;;;;;;;6.10;2.50;;;;;;;29.93;29.85;99349.30;234124;1199;139170;-55
2022/07/19 16:51:17;;;;;;;5.10;2.60;;;;;;;29.90;29.88;99344.98;234084;1199;139238;-54
2022/07/19 16:56:20;;;;;;;4.60;2.70;;;;;;;29.86;30.03;99338.62;234244;1198;140109;-55
2022/07/19 17:01:24;;;;;;;28.20;2.70;;;;;;;29.82;30.06;99339.93;234134;1199;139781;-55
2022/07/19 17:06:27;;;;;;;6.40;2.60;;;;;;;29.76;30.18;99335.00;234089;1199;139281;-54
2022/07/19 17:11:32;;;;;;;6.60;2.70;;;;;;;29.69;30.40;99336.61;234188;1199;139836;-55
2022/07/19 17:16:35;;;;;;;6.10;2.50;;;;;;;29.62;30.45;99329.67;234172;1198;139591;-54
2022/07/19 17:21:38;;;;;;;6.80;2.70;;;;;;;29.52;30.53;99325.20;234142;1199;138980;-55
2022/07/19 17:26:41;;;;;;;5.90;2.60;;;;;;;29.40;30.57;99327.16;234297;1199;138987;-55
2022/07/19 17:31:44;;;;;;;5.10;2.90;;;;;;;29.32;30.84;99329.44;234125;1199;139426;-55
2022/07/19 17:36:47;;;;;;;6.50;2.90;;;;;;;29.26;30.86;99333.14;234119;1199;139579;-55
2022/07/19 17:41:51;;;;;;;7.70;3.30;;;;;;;29.21;30.94;99335.46;234173;1199;139186;-55
2022/07/19 17:46:54;;;;;;;46.80;39.60;;;;;;;29.19;31.08;99334.19;234074;1199;139468;-55
2022/07/19 17:51:57;;;;;;;8.30;6.20;;;;;;;29.14;31.24;99335.39;234123;1199;139480;-53
2022/07/19 17:57:00;;;;;;;7.20;3.70;;;;;;;29.07;31.26;99333.44;234242;1199;138985;-55
2022/07/19 18:02:03;;;;;;;7.10;3.60;;;;;;;29.00;31.56;99338.17;234101;1199;139188;-55
2022/07/19 18:07:30;;;;;;;9.60;3.50;;;;;;;28.93;31.60;99340.48;233908;1199;140912;-52
2022/07/19 18:12:33;;;;;;;9.50;3.10;;;;;;;28.88;31.83;99339.56;234169;1198;139584;-55
2022/07/19 18:17:36;;;;;;;6.00;2.90;;;;;;;28.83;31.86;99345.32;234171;1199;139070;-54
2022/07/19 18:22:39;;;;;;;6.30;3.00;;;;;;;28.78;31.99;99348.08;234172;1199;140110;-55
2022/07/19 18:27:42;;;;;;;6.60;3.30;;;;;;;28.70;32.40;99346.88;234125;1199;139066;-54
2022/07/19 18:32:46;;;;;;;6.60;3.50;;;;;;;28.56;32.88;99346.02;234228;1198;139966;-54
2022/07/19 18:37:49;;;;;;;10.30;5.00;;;;;;;28.43;33.19;99349.58;234142;1199;139165;-54
2022/07/19 18:42:52;;;;;;;8.80;4.20;;;;;;;28.28;33.38;99353.51;233964;1199;140292;-54
2022/07/19 18:47:55;;;;;;;6.00;3.80;;;;;;;28.09;33.71;99356.89;234062;1199;140314;-54
2022/07/19 18:52:58;;;;;;;10.00;4.00;;;;;;;27.90;34.17;99361.34;234199;1199;139656;-54
2022/07/19 18:58:02;;;;;;;19.10;4.90;;;;;;;27.71;34.63;99363.35;234163;1199;139080;-55
2022/07/19 19:03:07;;;;;;;72.30;65.10;;;;;;;27.54;35.13;99366.36;234098;1199;139723;-55
2022/07/19 19:08:11;;;;;;;29.40;21.70;;;;;;;27.44;35.54;99374.30;234099;1199;139238;-54
2022/07/19 19:13:14;;;;;;;10.50;5.10;;;;;;;27.33;35.97;99379.11;234085;1199;139674;-54
2022/07/19 19:18:17;;;;;;;14.90;8.60;;;;;;;27.18;36.33;99378.80;234284;1199;139572;-56
2022/07/19 19:23:20;;;;;;;251.70;216.60;;;;;;;27.04;36.68;99382.73;234156;1199;139356;-56
2022/07/19 19:28:22;;;;;;;17.40;10.90;;;;;;;26.93;36.98;99386.67;233995;1199;139926;-56
2022/07/19 19:33:25;;;;;;;10.30;5.60;;;;;;;26.79;37.38;99393.57;233994;1199;140124;-56
2022/07/19 19:38:28;;;;;;;11.50;5.40;;;;;;;26.64;37.53;99396.52;234126;1198;139117;-55
2022/07/19 19:43:31;;;;;;;11.80;5.10;;;;;;;26.49;37.91;99393.17;234110;1199;139790;-55
2022/07/19 19:48:35;;;;;;;189.80;163.30;;;;;;;26.34;38.26;99397.56;234111;1198;139110;-56
2022/07/19 19:53:39;;;;;;;16.80;10.80;;;;;;;26.21;38.62;99396.28;234093;1199;140031;-54
2022/07/19 19:58:43;;;;;;;207.00;161.50;;;;;;;26.11;39.01;99399.52;234172;1199;139244;-53
2022/07/19 20:03:46;;;;;;;21.00;12.50;;;;;;;26.03;39.30;99398.44;233965;1199;139560;-54
2022/07/19 20:08:49;;;;;;;10.80;6.00;;;;;;;25.92;39.62;99402.16;234215;1199;139316;-54
2022/07/19 20:13:57;;;;;;;44.90;30.70;;;;;;;25.82;40.05;99404.48;234128;1199;139677;-55
2022/07/19 20:19:00;;;;;;;19.80;8.90;;;;;;;25.74;40.39;99407.08;234250;1199;139310;-53
2022/07/19 20:24:04;;;;;;;12.90;5.40;;;;;;;25.62;40.67;99406.08;234135;1199;139286;-57
2022/07/19 20:29:08;;;;;;;12.90;5.10;;;;;;;25.47;41.07;99407.45;234344;1199;139346;-54
2022/07/19 20:34:11;;;;;;;11.10;4.70;;;;;;;25.33;41.30;99411.77;234203;1199;139930;-55
2022/07/19 20:39:14;;;;;;;16.50;5.00;;;;;;;25.19;41.79;99404.95;234206;1199;139910;-56
2022/07/19 20:44:18;;;;;;;11.60;5.20;;;;;;;25.05;42.23;99406.98;234227;1199;139429;-59
2022/07/19 20:49:22;;;;;;;12.90;4.70;;;;;;;24.89;42.60;99408.27;234273;1199;139778;-57
2022/07/19 20:54:27;;;;;;;12.90;5.00;;;;;;;24.75;42.98;99410.44;234198;1199;140244;-55
2022/07/19 20:59:30;;;;;;;14.10;4.80;;;;;;;24.63;43.28;99406.98;234125;1199;139288;-57
2022/07/19 21:04:33;;;;;;;9.50;5.40;;;;;;;24.52;43.65;99411.25;234243;1199;141295;-54
2022/07/19 21:09:36;;;;;;;11.10;4.60;;;;;;;24.41;44.00;99414.62;234221;1199;139781;-56
2022/07/19 21:14:39;;;;;;;12.80;5.30;;;;;;;24.27;44.30;99413.42;234244;1199;139365;-55
2022/07/19 21:19:42;;;;;;;10.30;5.30;;;;;;;24.16;44.74;99417.21;234192;1199;139667;-57
2022/07/19 21:24:44;;;;;;;11.20;4.80;;;;;;;24.05;45.02;99419.30;234120;1199;139914;-58
2022/07/19 21:29:48;;;;;;;12.30;5.00;;;;;;;23.94;45.43;99418.60;234192;1199;139475;-59
2022/07/19 21:34:50;;;;;;;12.90;5.10;;;;;;;23.85;45.78;99420.48;234133;1199;139866;-56
2022/07/19 21:39:53;;;;;;;15.60;5.30;;;;;;;23.76;46.00;99427.08;234339;1199;139340;-59
2022/07/19 21:44:56;;;;;;;16.30;5.50;;;;;;;23.67;46.39;99430.13;234256;1199;139674;-56
2022/07/19 21:49:59;;;;;;;12.90;5.60;;;;;;;23.60;46.61;99431.55;234269;1199;139469;-58
2022/07/19 21:55:04;;;;;;;13.20;5.10;;;;;;;23.52;46.82;99435.33;234190;1199;139839;-57
2022/07/19 22:00:12;;;;;;;16.70;5.90;;;;;;;23.42;47.08;99437.73;234250;1199;139387;-57
2022/07/19 22:05:15;;;;;;;18.60;6.90;;;;;;;23.31;47.31;99443.75;234418;1199;139278;-57
2022/07/19 22:10:18;;;;;;;20.20;6.20;;;;;;;23.22;47.59;99440.78;234147;1199;139572;-57
2022/07/19 22:15:21;;;;;;;16.00;5.60;;;;;;;23.15;47.86;99444.83;234242;1199;139439;-59
2022/07/19 22:20:24;;;;;;;17.00;6.10;;;;;;;23.09;48.09;99449.98;234258;1199;139656;-57
2022/07/19 22:25:26;;;;;;;13.30;5.80;;;;;;;23.01;48.20;99450.09;234219;1199;139301;-54
2022/07/19 22:30:30;;;;;;;17.60;7.30;;;;;;;22.93;48.51;99452.79;234203;1199;139454;-60
2022/07/19 22:35:33;;;;;;;16.50;6.70;;;;;;;22.86;48.72;99451.09;234201;1199;139519;-59
2022/07/19 22:40:36;;;;;;;14.90;5.70;;;;;;;22.81;48.96;99448.96;234336;1199;140386;-57
2022/07/19 22:45:40;;;;;;;13.80;5.90;;;;;;;22.75;49.06;99454.00;234204;1199;139596;-56
2022/07/19 22:50:44;;;;;;;12.00;6.40;;;;;;;22.68;49.31;99450.84;234244;1199;139260;-59
2022/07/19 22:55:47;;;;;;;18.20;7.20;;;;;;;22.61;49.40;99451.31;234207;1199;139323;-57
2022/07/19 23:00:50;;;;;;;14.70;7.00;;;;;;;22.54;49.67;99462.30;234255;1199;139612;-57
2022/07/19 23:05:53;;;;;;;10.90;6.40;;;;;;;22.47;49.89;99458.92;234201;1199;139243;-57
2022/07/19 23:10:56;;;;;;;13.20;6.60;;;;;;;22.38;49.93;99453.64;234437;1199;139249;-60
2022/07/19 23:15:59;;;;;;;19.60;6.80;;;;;;;22.31;50.11;99458.99;234286;1199;139464;-58